createdAt,value
2022-12-08T00:00:17.570Z,14.90
2022-12-08T00:02:47.906Z,14.35
2022-12-08T00:05:33.227Z,13.27
2022-12-08T00:08:18.504Z,12.73
2022-12-08T00:10:51.232Z,14.77
2022-12-08T00:13:18.741Z,15.10
2022-12-08T00:15:46.186Z,14.57
2022-12-08T00:18:13.825Z,16.30
2022-12-08T00:20:41.414Z,16.60
2022-12-08T00:23:08.834Z,16.95
2022-12-08T00:25:36.941Z,20.40
2022-12-08T00:28:06.106Z,19.80
2022-12-08T00:30:35.265Z,20.92
2022-12-08T00:33:02.714Z,22.73
2022-12-08T00:35:30.220Z,23.30
2022-12-08T00:38:01.112Z,22.67
2022-12-08T00:40:31.492Z,23.48
2022-12-08T00:42:59.170Z,24.75
2022-12-08T00:45:30.465Z,25.75
2022-12-08T00:47:57.871Z,26.48
2022-12-08T00:50:29.584Z,26.92
2022-12-08T00:52:57.114Z,27.17
2022-12-08T00:55:26.047Z,27.08
2022-12-08T00:57:56.763Z,26.02
2022-12-08T01:00:24.167Z,25.55
2022-12-08T01:02:52.934Z,26.35
2022-12-08T01:05:20.522Z,24.90
2022-12-08T01:07:49.060Z,24.63
2022-12-08T01:10:18.932Z,25.45
2022-12-08T01:12:47.253Z,24.27
2022-12-08T01:15:17.083Z,26.08
2022-12-08T01:17:44.500Z,25.73
2022-12-08T01:20:13.430Z,26.88
2022-12-08T01:22:42.925Z,25.80
2022-12-08T01:25:12.233Z,22.92
2022-12-08T01:27:39.896Z,26.13
2022-12-08T01:30:08.101Z,25.52
2022-12-08T01:32:35.545Z,25.55
2022-12-08T01:35:02.960Z,26.23
2022-12-08T01:37:34.981Z,23.50
2022-12-08T01:40:02.935Z,25.27
2022-12-08T01:42:32.334Z,24.02
2022-12-08T01:45:02.418Z,23.67
2022-12-08T01:47:36.908Z,20.73
2022-12-08T01:50:08.525Z,21.98
2022-12-08T01:52:41.435Z,20.95
2022-12-08T01:55:12.284Z,20.45
2022-12-08T01:57:42.350Z,21.13
2022-12-08T02:00:12.440Z,19.45
2022-12-08T02:02:47.846Z,19.63
2022-12-08T02:05:16.165Z,19.73
2022-12-08T02:07:48.038Z,21.25
2022-12-08T02:10:18.628Z,20.52
2022-12-08T02:12:51.211Z,21.20
2022-12-08T02:15:19.081Z,22.50
2022-12-08T02:20:31.951Z,22.40
2022-12-08T02:23:05.778Z,20.75
2022-12-08T02:25:41.002Z,22.17
2022-12-08T02:28:25.766Z,22.63
2022-12-08T02:33:49.979Z,20.55
2022-12-08T02:36:23.889Z,23.90
2022-12-08T02:38:58.677Z,23.98
2022-12-08T02:41:32.640Z,24.35
2022-12-08T02:44:09.590Z,25.20
2022-12-08T02:46:40.674Z,25.85
2022-12-08T02:49:14.523Z,24.60
2022-12-08T02:51:44.612Z,26.55
2022-12-08T02:54:12.709Z,26.85
2022-12-08T02:56:47.396Z,26.08
2022-12-08T02:59:28.832Z,26.88
2022-12-08T03:02:03.092Z,27.38
2022-12-08T03:04:36.579Z,27.83
2022-12-08T03:07:11.770Z,28.08
2022-12-08T03:09:47.145Z,28.13
2022-12-08T03:12:17.610Z,28.10
2022-12-08T03:14:46.473Z,26.17
2022-12-08T03:17:14.824Z,25.77
2022-12-08T03:19:45.935Z,27.65
2022-12-08T03:22:18.909Z,28.98
2022-12-08T03:24:46.716Z,30.13
2022-12-08T03:27:19.456Z,27.35
2022-12-08T03:29:50.036Z,25.88
2022-12-08T03:32:23.316Z,29.70
2022-12-08T03:34:53.615Z,28.52
2022-12-08T03:37:25.326Z,29.20
2022-12-08T03:39:56.565Z,30.48
2022-12-08T03:42:24.109Z,29.80
2022-12-08T03:44:52.096Z,31.38
2022-12-08T03:49:48.421Z,30.13
2022-12-08T03:52:15.990Z,29.65
2022-12-08T03:54:44.800Z,32.25
2022-12-08T03:57:13.189Z,30.80
2022-12-08T03:59:40.649Z,30.33
2022-12-08T04:02:08.128Z,33.47
2022-12-08T04:04:35.748Z,34.17
2022-12-08T04:07:03.131Z,32.30
2022-12-08T04:09:30.578Z,33.13
2022-12-08T04:11:59.302Z,33.88
2022-12-08T04:14:26.824Z,35.42
2022-12-08T04:16:54.257Z,34.97
2022-12-08T04:19:21.627Z,29.58
2022-12-08T04:21:48.992Z,36.25
2022-12-08T04:24:16.383Z,35.03
2022-12-08T04:26:43.806Z,33.90
2022-12-08T04:29:12.511Z,34.78
2022-12-08T04:31:40.190Z,33.28
2022-12-08T04:34:07.615Z,36.17
2022-12-08T04:36:34.979Z,35.92
2022-12-08T04:39:02.399Z,37.88
2022-12-08T04:41:32.774Z,37.67
2022-12-08T04:44:03.985Z,36.08
2022-12-08T04:46:33.315Z,36.60
2022-12-08T04:49:01.133Z,37.30
2022-12-08T04:51:28.680Z,34.60
2022-12-08T04:53:56.550Z,28.23
2022-12-08T04:56:27.962Z,31.17
2022-12-08T04:58:57.249Z,30.60
2022-12-08T05:01:28.895Z,32.83
2022-12-08T05:04:08.740Z,33.05
2022-12-08T05:06:36.276Z,29.77
2022-12-08T05:09:05.568Z,32.75
2022-12-08T05:11:33.156Z,30.55
2022-12-08T05:14:02.286Z,31.38
2022-12-08T05:16:30.056Z,30.48
2022-12-08T05:19:03.705Z,30.27
2022-12-08T05:21:45.315Z,32.40
2022-12-08T05:24:14.481Z,30.05
2022-12-08T05:26:42.430Z,30.75
2022-12-08T05:29:09.995Z,29.50
2022-12-08T05:31:39.016Z,30.85
2022-12-08T05:34:09.334Z,26.80
2022-12-08T05:36:37.253Z,27.15
2022-12-08T05:39:06.586Z,29.13
2022-12-08T05:41:34.036Z,24.73
2022-12-08T05:44:01.439Z,21.65
2022-12-08T05:46:29.408Z,22.48
2022-12-08T05:49:02.607Z,20.73
2022-12-08T05:51:33.303Z,24.50
2022-12-08T05:54:01.203Z,23.95
2022-12-08T05:56:28.682Z,24.88
2022-12-08T05:58:58.059Z,27.00
2022-12-08T06:01:27.988Z,25.42
2022-12-08T06:03:55.809Z,27.63
2022-12-08T06:08:58.063Z,28.25
2022-12-08T06:11:26.676Z,28.73
2022-12-08T06:13:54.541Z,29.50
2022-12-08T06:18:52.586Z,28.15
2022-12-08T06:21:20.294Z,30.45
2022-12-08T06:23:53.362Z,31.35
2022-12-08T06:26:25.725Z,32.90
2022-12-08T06:28:53.179Z,31.50
2022-12-08T06:31:21.653Z,33.00
2022-12-08T06:33:49.368Z,33.33
2022-12-08T06:36:20.941Z,35.85
2022-12-08T06:38:48.513Z,34.75
2022-12-08T06:41:22.208Z,35.38
2022-12-08T06:43:49.778Z,35.15
2022-12-08T06:46:24.326Z,32.28
2022-12-08T06:48:51.791Z,28.73
2022-12-08T06:51:19.887Z,25.10
2022-12-08T06:53:47.789Z,26.05
2022-12-08T06:58:53.328Z,24.27
2022-12-08T07:01:23.889Z,25.75
2022-12-08T07:03:53.836Z,22.10
2022-12-08T07:06:25.281Z,20.42
2022-12-08T07:08:52.935Z,19.88
2022-12-08T07:11:22.949Z,21.15
2022-12-08T07:13:52.252Z,18.27
2022-12-08T07:16:20.200Z,17.48
2022-12-08T07:21:21.119Z,16.90
2022-12-08T07:23:57.665Z,17.88
2022-12-08T07:26:26.769Z,20.38
2022-12-08T07:28:58.503Z,20.48
2022-12-08T07:31:28.532Z,20.25
2022-12-08T07:33:57.989Z,21.50
2022-12-08T07:36:25.981Z,22.30
2022-12-08T07:41:26.103Z,23.33
2022-12-08T07:43:55.502Z,21.88
2022-12-08T07:46:30.276Z,23.20
2022-12-08T07:49:01.650Z,26.15
2022-12-08T07:51:29.098Z,24.58
2022-12-08T07:53:56.665Z,25.85
2022-12-08T07:56:29.184Z,23.85
2022-12-08T07:58:56.756Z,23.10
2022-12-08T08:01:26.737Z,21.75
2022-12-08T08:03:55.943Z,20.08
2022-12-08T08:06:23.758Z,19.67
2022-12-08T08:08:56.243Z,20.92
2022-12-08T08:11:25.699Z,19.42
2022-12-08T08:13:53.611Z,20.40
2022-12-08T08:16:28.588Z,23.25
2022-12-08T08:19:01.435Z,20.58
2022-12-08T08:21:45.046Z,21.92
2022-12-08T08:24:13.598Z,24.02
2022-12-08T08:26:43.355Z,24.77
2022-12-08T08:29:15.292Z,25.58
2022-12-08T08:31:44.112Z,27.27
2022-12-08T08:34:17.581Z,26.10
2022-12-08T08:36:47.212Z,26.23
2022-12-08T08:39:14.645Z,26.73
2022-12-08T08:41:43.463Z,25.40
2022-12-08T08:44:14.556Z,24.70
2022-12-08T08:46:42.122Z,26.80
2022-12-08T08:49:10.919Z,27.10
2022-12-08T08:51:38.432Z,25.70
2022-12-08T08:54:07.677Z,23.67
2022-12-08T08:56:35.577Z,23.27
2022-12-08T09:01:33.083Z,22.55
2022-12-08T09:04:01.265Z,23.27
2022-12-08T09:06:32.665Z,23.52
2022-12-08T09:09:00.227Z,20.92
2022-12-08T09:11:33.569Z,21.60
2022-12-08T09:14:03.644Z,21.08
2022-12-08T09:16:38.920Z,20.58
2022-12-08T09:21:37.892Z,18.00
2022-12-08T09:24:05.419Z,17.02
2022-12-08T09:26:32.940Z,17.95
2022-12-08T09:29:06.308Z,17.85
2022-12-08T09:31:35.205Z,16.27
2022-12-08T09:34:03.088Z,17.30
2022-12-08T09:38:59.490Z,16.00
2022-12-08T09:41:38.793Z,17.10
2022-12-08T09:44:22.977Z,16.40
2022-12-08T09:46:52.333Z,16.63
2022-12-08T09:49:22.096Z,18.02
2022-12-08T09:51:51.768Z,16.73
2022-12-08T09:54:25.154Z,17.30
2022-12-08T09:56:55.062Z,17.13
2022-12-08T09:59:27.457Z,15.20
2022-12-08T10:02:01.413Z,14.10
2022-12-08T10:04:35.903Z,17.42
2022-12-08T10:07:05.877Z,15.75
2022-12-08T10:09:44.122Z,14.85
2022-12-08T10:12:14.847Z,16.30
2022-12-08T10:14:43.545Z,16.40
2022-12-08T10:17:18.434Z,13.60
2022-12-08T10:19:48.365Z,16.02
2022-12-08T10:22:21.181Z,17.90
2022-12-08T10:24:53.503Z,17.95
2022-12-08T10:27:21.239Z,17.15
2022-12-08T10:29:48.840Z,19.02
2022-12-08T10:32:18.595Z,18.83
2022-12-08T10:35:04.998Z,18.88
2022-12-08T10:37:35.703Z,20.23
2022-12-08T10:40:07.818Z,18.77
2022-12-08T10:42:37.335Z,19.45
2022-12-08T10:45:16.867Z,22.40
2022-12-08T10:47:46.487Z,22.10
2022-12-08T10:50:19.307Z,22.58
2022-12-08T10:52:47.598Z,24.20
2022-12-08T10:55:17.540Z,25.13
2022-12-08T10:57:48.890Z,26.75
2022-12-08T11:00:18.291Z,26.73
2022-12-08T11:02:54.125Z,26.45
2022-12-08T11:05:22.649Z,25.92
2022-12-08T11:07:51.051Z,27.00
2022-12-08T11:10:21.046Z,26.30
2022-12-08T11:12:51.801Z,28.17
2022-12-08T11:15:20.053Z,28.42
2022-12-08T11:18:03.398Z,23.60
2022-12-08T11:20:38.378Z,21.92
2022-12-08T11:23:19.671Z,22.20
2022-12-08T11:25:53.091Z,22.08
2022-12-08T11:28:23.389Z,20.17
2022-12-08T11:30:57.554Z,22.85
2022-12-08T11:33:25.982Z,24.80
2022-12-08T11:35:55.250Z,25.95
2022-12-08T11:38:30.527Z,24.15
2022-12-08T11:41:01.465Z,22.75
2022-12-08T11:43:36.844Z,21.45
2022-12-08T11:46:10.542Z,22.25
2022-12-08T11:48:41.327Z,25.10
2022-12-08T11:51:16.798Z,21.92
2022-12-08T11:53:51.608Z,20.02
2022-12-08T11:56:24.985Z,20.08
2022-12-08T11:58:54.114Z,21.08
2022-12-08T12:01:22.577Z,20.42
2022-12-08T12:03:56.123Z,21.45
2022-12-08T12:06:57.825Z,20.08
2022-12-08T12:09:31.054Z,21.25
2022-12-08T12:12:16.492Z,20.02
2022-12-08T12:14:53.106Z,22.17
2022-12-08T12:17:27.781Z,23.33
2022-12-08T12:19:59.874Z,23.48
2022-12-08T12:22:33.006Z,22.45
2022-12-08T12:25:03.082Z,24.90
2022-12-08T12:27:35.906Z,23.95
2022-12-08T12:30:05.676Z,23.10
2022-12-08T12:32:42.377Z,21.35
2022-12-08T12:35:16.313Z,22.35
2022-12-08T12:37:44.496Z,20.50
2022-12-08T12:40:17.610Z,20.85
2022-12-08T12:42:48.775Z,20.85
2022-12-08T12:45:29.126Z,20.73
2022-12-08T12:48:23.555Z,21.33
2022-12-08T12:50:51.410Z,23.13
2022-12-08T12:58:24.124Z,22.33
2022-12-08T13:03:27.201Z,23.33
2022-12-08T13:05:54.862Z,23.55
2022-12-08T13:08:24.291Z,22.15
2022-12-08T13:11:01.187Z,21.95
2022-12-08T13:13:32.855Z,24.13
2022-12-08T13:16:12.738Z,23.33
2022-12-08T13:18:50.327Z,23.33
2022-12-08T13:21:22.461Z,21.13
2022-12-08T13:24:14.167Z,22.75
2022-12-08T13:26:47.455Z,22.63
2022-12-08T13:29:21.085Z,23.45
2022-12-08T13:31:51.429Z,24.05
2022-12-08T13:34:35.219Z,24.42
2022-12-08T13:37:20.665Z,24.55
2022-12-08T13:39:50.205Z,25.00
2022-12-08T13:42:21.507Z,24.75
2022-12-08T13:48:13.789Z,25.13
2022-12-08T13:52:37.062Z,25.35
2022-12-08T13:59:11.310Z,24.67
2022-12-08T14:01:45.296Z,28.15
2022-12-08T14:07:04.577Z,26.92
2022-12-08T14:09:37.507Z,25.67
2022-12-08T14:12:06.347Z,27.63
2022-12-08T14:17:24.570Z,27.27
2022-12-08T14:19:56.227Z,29.30
2022-12-08T14:22:23.604Z,28.70
2022-12-08T14:24:51.963Z,29.45
2022-12-08T14:27:23.220Z,31.50
2022-12-08T14:29:52.296Z,29.20
2022-12-08T14:32:28.839Z,29.77
2022-12-08T14:34:57.871Z,31.58
2022-12-08T14:37:28.031Z,31.00
2022-12-08T14:39:58.768Z,32.67
2022-12-08T14:42:28.258Z,29.50
2022-12-08T14:44:59.596Z,28.40
2022-12-08T14:47:31.866Z,29.10
2022-12-08T14:49:59.769Z,27.98
2022-12-08T14:52:30.500Z,28.83
2022-12-08T14:54:58.580Z,26.83
2022-12-08T14:57:34.518Z,26.98
2022-12-08T15:00:11.213Z,27.10
2022-12-08T15:02:43.040Z,21.98
2022-12-08T15:05:12.328Z,20.40
2022-12-08T15:07:46.986Z,19.55
2022-12-08T15:10:27.230Z,18.50
2022-12-08T15:13:02.572Z,18.90
2022-12-08T15:15:31.445Z,17.65
2022-12-08T15:18:03.056Z,17.08
2022-12-08T15:20:35.930Z,17.55
2022-12-08T15:23:05.253Z,17.55
2022-12-08T15:25:33.149Z,17.77
2022-12-08T15:28:05.269Z,17.95
2022-12-08T15:30:33.526Z,18.48
2022-12-08T15:33:02.687Z,17.63
2022-12-08T15:35:37.259Z,18.13
2022-12-08T15:38:08.119Z,18.70
2022-12-08T15:40:35.799Z,18.95
2022-12-08T15:43:05.375Z,19.65
2022-12-08T15:45:33.187Z,18.92
2022-12-08T15:48:02.081Z,20.75
2022-12-08T15:50:35.080Z,20.25
2022-12-08T15:53:02.510Z,21.48
2022-12-08T15:55:37.178Z,21.88
2022-12-08T16:00:57.348Z,21.50
2022-12-08T16:04:13.747Z,22.23
2022-12-08T16:09:12.474Z,22.50
2022-12-08T16:12:07.786Z,23.65
2022-12-08T16:17:24.728Z,24.95
2022-12-08T16:19:53.539Z,23.80
2022-12-08T16:25:18.174Z,24.70
2022-12-08T16:30:36.812Z,24.85
2022-12-08T16:33:04.918Z,24.83
2022-12-08T16:35:33.777Z,25.77
2022-12-08T16:38:01.185Z,28.13
2022-12-08T16:40:31.514Z,30.02
2022-12-08T16:42:58.167Z,28.23
2022-12-08T16:45:26.805Z,29.17
2022-12-08T16:47:58.949Z,29.30
2022-12-08T16:50:27.545Z,29.33
2022-12-08T16:52:59.039Z,28.80
2022-12-08T16:55:27.103Z,30.85
2022-12-08T16:57:54.564Z,30.05
2022-12-08T17:00:23.319Z,30.02
2022-12-08T17:02:51.396Z,30.15
2022-12-08T17:05:23.690Z,30.83
2022-12-08T17:08:03.428Z,32.90
2022-12-08T17:10:34.307Z,32.50
2022-12-08T17:13:02.606Z,31.45
2022-12-08T17:15:32.492Z,31.67
2022-12-08T17:18:03.875Z,29.70
2022-12-08T17:20:34.503Z,33.03
2022-12-08T17:23:03.328Z,33.95
2022-12-08T17:25:32.405Z,33.95
2022-12-08T17:27:59.999Z,34.30
2022-12-08T17:30:30.436Z,40.00
2022-12-08T17:32:57.969Z,35.95
2022-12-08T17:35:25.370Z,34.75
2022-12-08T17:37:53.020Z,36.47
2022-12-08T17:40:20.609Z,35.67
2022-12-08T17:42:49.658Z,36.50
2022-12-08T17:45:19.028Z,36.97
2022-12-08T17:47:46.394Z,36.17
2022-12-08T17:50:13.991Z,36.42
2022-12-08T17:52:41.383Z,36.78
2022-12-08T17:55:09.297Z,33.22
2022-12-08T17:57:36.774Z,34.85
2022-12-08T18:00:08.780Z,33.60
2022-12-08T18:02:39.374Z,32.72
2022-12-08T18:05:07.486Z,32.58
2022-12-08T18:07:34.868Z,34.20
2022-12-08T18:10:02.367Z,34.70
2022-12-08T18:12:30.249Z,34.63
2022-12-08T18:14:57.669Z,30.50
2022-12-08T18:17:26.645Z,29.85
2022-12-08T18:19:54.019Z,29.77
2022-12-08T18:22:21.395Z,29.20
2022-12-08T18:24:51.247Z,27.85
2022-12-08T18:27:18.621Z,29.10
2022-12-08T18:29:46.067Z,29.27
2022-12-08T18:32:13.472Z,30.52
2022-12-08T18:34:42.267Z,30.17
2022-12-08T18:37:09.669Z,28.88
2022-12-08T18:39:37.453Z,32.65
2022-12-08T18:44:50.078Z,31.17
2022-12-08T18:47:17.459Z,36.97
2022-12-08T18:49:46.399Z,32.55
2022-12-08T18:52:14.467Z,35.33
2022-12-08T18:55:05.275Z,34.22
2022-12-08T18:57:30.421Z,33.63
2022-12-08T18:59:58.091Z,32.95
2022-12-08T19:02:25.490Z,34.75
2022-12-08T19:04:55.932Z,34.78
2022-12-08T19:07:23.315Z,33.35
2022-12-08T19:09:50.679Z,39.85
2022-12-08T19:12:18.337Z,40.20
2022-12-08T19:14:45.818Z,38.17
2022-12-08T19:17:13.347Z,40.47
2022-12-08T19:19:40.810Z,36.90
2022-12-08T19:22:09.798Z,43.58
2022-12-08T19:24:37.212Z,42.75
2022-12-08T19:27:05.079Z,41.22
2022-12-08T19:29:33.127Z,44.78
2022-12-08T19:32:00.814Z,41.55
2022-12-08T19:34:28.232Z,44.13
2022-12-08T19:36:55.841Z,41.97
2022-12-08T19:39:45.462Z,43.03
2022-12-08T19:42:34.563Z,45.28
2022-12-08T19:45:04.626Z,43.08
2022-12-08T19:47:36.326Z,43.20
2022-12-08T19:50:21.524Z,44.08
2022-12-08T19:52:52.261Z,43.42
2022-12-08T19:55:21.320Z,46.72
2022-12-08T19:57:49.140Z,43.47
2022-12-08T20:00:20.540Z,44.35
2022-12-08T20:02:50.366Z,45.28
2022-12-08T20:05:18.134Z,47.00
2022-12-08T20:07:45.914Z,45.53
2022-12-08T20:12:42.425Z,43.25
2022-12-08T20:15:11.066Z,48.03
2022-12-08T20:17:39.076Z,46.47
2022-12-08T20:22:38.092Z,44.45
2022-12-08T20:25:12.539Z,49.70
2022-12-08T20:27:43.269Z,48.88
2022-12-08T20:30:16.724Z,50.20
2022-12-08T20:32:45.097Z,51.50
2022-12-08T20:35:13.050Z,48.85
2022-12-08T20:37:40.591Z,61.25
2022-12-08T20:40:08.859Z,49.22
2022-12-08T20:42:36.466Z,48.75
2022-12-08T20:47:42.524Z,45.80
2022-12-08T20:50:10.945Z,46.63
2022-12-08T20:52:38.945Z,52.72
2022-12-08T20:55:11.953Z,47.55
2022-12-08T20:57:41.008Z,47.28
2022-12-08T21:00:11.451Z,51.33
2022-12-08T21:02:48.576Z,51.03
2022-12-08T21:05:16.489Z,50.33
2022-12-08T21:10:14.959Z,44.70
2022-12-08T21:12:42.792Z,48.10
2022-12-08T21:15:12.029Z,46.92
2022-12-08T21:17:44.416Z,46.85
2022-12-08T21:20:12.307Z,46.50
2022-12-08T21:22:40.922Z,49.78
2022-12-08T21:25:09.332Z,45.88
2022-12-08T21:27:37.783Z,48.70
2022-12-08T21:30:06.269Z,46.95
2022-12-08T21:32:36.814Z,46.53
2022-12-08T21:35:11.148Z,48.00
2022-12-08T21:37:39.989Z,47.03
2022-12-08T21:40:10.154Z,45.92
2022-12-08T21:42:49.589Z,48.40
2022-12-08T21:45:18.211Z,47.38
2022-12-08T21:47:46.330Z,50.80
2022-12-08T21:50:15.822Z,47.65
2022-12-08T21:52:44.381Z,47.17
2022-12-08T21:55:12.512Z,46.00
2022-12-08T21:57:40.271Z,43.80
2022-12-08T22:00:08.968Z,48.33
2022-12-08T22:02:37.819Z,43.15
2022-12-08T22:05:05.744Z,43.95
2022-12-08T22:12:29.539Z,41.95
2022-12-08T22:14:57.139Z,43.67
2022-12-08T22:17:27.823Z,42.30
2022-12-08T22:19:56.642Z,45.33
2022-12-08T22:22:26.514Z,44.10
2022-12-08T22:24:54.294Z,45.15
2022-12-08T22:27:22.169Z,45.47
2022-12-08T22:32:18.894Z,40.78
2022-12-08T22:34:46.536Z,45.97
2022-12-08T22:37:14.363Z,43.25
2022-12-08T22:42:09.704Z,42.97
2022-12-08T22:44:37.328Z,42.78
2022-12-08T22:47:05.105Z,43.08
2022-12-08T22:52:01.898Z,42.83
2022-12-08T22:54:32.511Z,50.90
2022-12-08T22:57:03.817Z,44.60
2022-12-08T22:59:34.772Z,47.47
2022-12-08T23:02:02.185Z,45.47
2022-12-08T23:04:29.681Z,47.67
2022-12-08T23:06:57.217Z,44.78
2022-12-08T23:09:25.934Z,46.67
2022-12-08T23:11:54.037Z,46.67
2022-12-08T23:14:22.678Z,44.83
2022-12-08T23:16:50.423Z,41.55
2022-12-08T23:19:17.876Z,46.38
2022-12-08T23:21:45.306Z,43.58
2022-12-08T23:24:12.666Z,47.20
2022-12-08T23:26:42.781Z,53.63
2022-12-08T23:29:10.216Z,51.97
2022-12-08T23:31:38.692Z,46.22
2022-12-08T23:34:06.151Z,40.58
2022-12-08T23:36:33.513Z,42.42
2022-12-08T23:39:00.919Z,41.88
2022-12-08T23:41:28.533Z,41.42
2022-12-08T23:43:57.677Z,44.50
2022-12-08T23:46:25.548Z,40.10
2022-12-08T23:48:53.286Z,37.88
2022-12-08T23:51:21.298Z,40.08
2022-12-08T23:53:48.868Z,42.88
2022-12-08T23:56:17.118Z,44.13
2022-12-08T23:58:45.089Z,43.70
